• Join FlightAware (Why Join?)
  • Login
  • US Flag 
10:54AM EDT


 

Airport Tracker/Info


-or-


 

Live Flight TrackerFlight Track Log ✈ AAY894 ✈ 13-Apr-2014 ✈ KPIE - KIAG

Flight Track Log - Related Links

Times and Time Zones

All times are in EDT time to prevent confusion due to time zone crossing. See the AAY894 flight status page for this flight to view local times or setup timezone preferences in your user account.

Time Position Orientation Groundspeed Altitude Reporting Facility
EDT Latitude Longitude Course Direction KTS MPH feet Rate Location/Type
08:16AM 27.9333 -82.6833 24° Northeast 166 191 800  Level Tampa TRACON
08:18AM 27.9667 -82.6667 24° Northeast 167 192 3,100 1,560 Climbing Tampa TRACON
08:19AM 28.0167 -82.6500 16° North 251 289 4,500 1,920 Climbing Tampa TRACON
08:20AM 28.1000 -82.6500 360° North 279 321 7,000 1,980 Climbing Tampa TRACON
08:22AM 28.2811 -82.6497 360° North 299 344 11,200 1,620 Climbing Jacksonville Center
08:23AM 28.3875 -82.6400 North 335 386 12,500 2,100 Climbing Jacksonville Center
08:24AM 28.4981 -82.6397 360° North 372 428 15,400 2,520 Climbing Jacksonville Center
08:25AM 28.6108 -82.6347 North 393 452 17,600 1,800 Climbing Jacksonville Center
08:26AM 28.7278 -82.6297 North 406 467 19,000 1,440 Climbing Jacksonville Center
08:27AM 28.8467 -82.6247 North 412 474 20,500 1,500 Climbing Jacksonville Center
08:28AM 28.9697 -82.6172 North 424 488 22,000 1,500 Climbing Jacksonville Center
08:29AM 29.0950 -82.6075 North 439 505 23,600 1,500 Climbing Jacksonville Center
08:30AM 29.2181 -82.6094 359° North 439 505 25,000 2,100 Climbing Jacksonville Center
08:31AM 29.3414 -82.5994 North 439 505 27,800 1,920 Climbing Jacksonville Center
08:32AM 29.4728 -82.5967 North 433 498 28,900 1,200 Climbing Jacksonville Center
08:33AM 29.5919 -82.5942 North 433 498 30,200 1,020 Climbing Jacksonville Center
08:34AM 29.7108 -82.5842 North 428 493 31,000 360 Climbing Jacksonville Center
08:35AM 29.8297 -82.5814 North 422 486 31,000  Level Jacksonville Center
08:36AM 29.9467 -82.5739 North 417 480 31,000  Level Jacksonville Center
08:37AM 30.0636 -82.5758 359° North 417 480 31,000  Level Jacksonville Center
08:38AM 30.1806 -82.5681 North 417 480 31,000  Level Jacksonville Center
08:39AM 30.2994 -82.5653 North 417 480 31,000  Level Jacksonville Center
08:40AM 30.4144 -82.5578 North 417 480 31,000  Level Jacksonville Center
08:41AM 30.5292 -82.5525 North 417 480 31,000  Level Jacksonville Center
08:42AM 30.6481 -82.5472 North 417 480 31,000  Level Jacksonville Center
08:43AM 30.7650 -82.5444 North 422 486 31,000  Level Jacksonville Center
08:44AM 30.8800 -82.5392 North 422 486 31,000  Level Jacksonville Center
08:45AM 30.9967 -82.5364 North 422 486 31,000  Level Jacksonville Center
08:46AM 31.1158 -82.5261 North 422 486 31,000  Level Jacksonville Center
08:47AM 31.2328 -82.5256 360° North 417 480 31,000  Level Jacksonville Center
08:48AM 31.3517 -82.5181 North 417 480 31,000  Level Jacksonville Center
08:50AM 31.6222 -82.4928 North 420 483 31,000  Level Atlanta Center
08:51AM 31.7408 -82.4783 North 420 483 31,000  Level Atlanta Center
08:52AM 31.8594 -82.4567 North 427 491 31,000  Level Atlanta Center
08:53AM 31.9658 -82.4453 North 427 491 31,000  Level Atlanta Center
08:54AM 32.0803 -82.4211 10° North 427 491 31,000  Level Atlanta Center
08:55AM 32.1950 -82.4092 North 421 484 31,000  Level Atlanta Center
08:56AM 32.3094 -82.3850 10° North 416 479 31,000  Level Atlanta Center
08:57AM 32.4283 -82.3681 North 421 484 31,000  Level Atlanta Center
08:58AM 32.5469 -82.3508 North 421 484 31,000  Level Atlanta Center
08:59AM 32.6636 -82.3289 North 427 491 31,000  Level Atlanta Center
09:00AM 32.7803 -82.3119 North 422 486 31,000  Level Atlanta Center
09:01AM 32.8969 -82.2947 North 422 486 31,000  Level Atlanta Center
09:02AM 33.0136 -82.2775 North 422 486 31,000  Level Atlanta Center
09:03AM 33.1322 -82.2553 North 427 491 31,000  Level Atlanta Center
09:04AM 33.2611 -82.2328 North 427 491 31,000  Level Atlanta Center
09:05AM 33.3800 -82.2153 North 427 491 31,000  Level Atlanta Center
09:06AM 33.5008 -82.1953 North 427 491 31,000  Level Atlanta Center
09:07AM 33.6194 -82.1753 North 427 491 31,000  Level Atlanta Center
09:08AM 33.7400 -82.1528 North 427 491 31,000  Level Atlanta Center
09:09AM 33.8589 -82.1350 North 427 491 31,000  Level Atlanta Center
09:10AM 33.9775 -82.1150 North 427 491 31,000  Level Atlanta Center
09:11AM 34.0961 -82.0922 North 427 491 31,000  Level Atlanta Center
09:12AM 34.2022 -82.0747 North 427 491 31,000  Level Atlanta Center
09:13AM 34.3208 -82.0594 North 427 491 31,000  Level Atlanta Center
09:14AM 34.4417 -82.0339 10° North 427 491 31,000  Level Atlanta Center
09:15AM 34.5581 -82.0133 North 427 491 31,000  Level Atlanta Center
09:16AM 34.6767 -81.9903 North 427 491 31,000  Level Atlanta Center
09:17AM 34.7953 -81.9722 North 427 491 31,000  Level Atlanta Center
09:18AM 34.9264 -81.9514 North 427 491 31,000  Level Atlanta Center
09:19AM 35.0428 -81.9281 North 427 491 31,000  Level Atlanta Center
09:20AM 35.1633 -81.8894 15° North 427 491 31,000  Level Atlanta Center
09:21AM 35.2797 -81.8636 10° North 427 491 31,000  Level Atlanta Center
09:22AM 35.4000 -81.8272 14° North 427 491 31,000  Level Atlanta Center
09:23AM 35.5183 -81.7958 12° North 427 491 31,000  Level Atlanta Center
09:24AM 35.6392 -81.7875 North 427 491 31,000  Level Atlanta Center
09:25AM 35.7497 -81.7794 North 427 491 31,000  Level Atlanta Center
09:26AM 35.8683 -81.7708 North 422 486 31,000  Level Atlanta Center
09:27AM 35.9892 -81.7675 North 422 486 31,000  Level Atlanta Center
09:28AM 36.1094 -81.7256 16° North 422 486 31,000  Level Atlanta Center
09:30AM 36.3569 -81.6386 16° North 445 512 31,000  Level Indianapolis Center
09:31AM 36.4758 -81.5992 15° North 445 512 31,000  Level Indianapolis Center
09:32AM 36.5956 -81.5544 17° North 445 512 31,000  Level Indianapolis Center
09:33AM 36.7292 -81.5097 15° North 448 516 31,000  Level Indianapolis Center
09:34AM 36.8456 -81.4617 18° North 451 519 31,000  Level Indianapolis Center
09:35AM 36.9622 -81.4244 14° North 448 516 31,000  Level Indianapolis Center
09:36AM 37.0961 -81.3722 17° North 449 517 31,000  Level Indianapolis Center
09:37AM 37.2181 -81.3322 15° North 450 518 31,000  Level Indianapolis Center
09:39AM 37.3386 -81.2839 18° North 450 518 31,000  Level Indianapolis Center
09:40AM 37.4578 -81.2442 15° North 451 519 31,000  Level Indianapolis Center
09:41AM 37.5994 -81.1864 18° North 454 522 31,000  Level Indianapolis Center
09:42AM 37.7197 -81.1472 14° North 456 525 31,000  Level Indianapolis Center
09:43AM 37.8506 -81.1003 16° North 456 525 31,000  Level Indianapolis Center
09:44AM 37.9733 -81.0725 10° North 455 524 31,000  Level Indianapolis Center
09:45AM 38.0956 -81.0283 16° North 454 522 31,000  Level Indianapolis Center
09:46AM 38.2186 -81.0000 10° North 454 522 31,000  Level Indianapolis Center
09:47AM 38.3408 -80.9586 15° North 454 522 31,000  Level Indianapolis Center
09:48AM 38.4892 -80.9217 11° North 454 522 31,000  Level Indianapolis Center
09:49AM 38.6125 -80.8783 15° North 461 531 31,000  Level Indianapolis Center
09:50AM 38.7364 -80.8475 11° North 460 529 31,000  Level Indianapolis Center
09:51AM 38.8603 -80.8053 15° North 460 529 31,000  Level Indianapolis Center
09:52AM 38.9839 -80.7758 10° North 458 527 31,000  Level Indianapolis Center
09:53AM 39.1075 -80.7325 15° North 457 526 31,000  Level Indianapolis Center
09:54AM 39.2567 -80.6944 11° North 457 526 31,000  Level Indianapolis Center
09:55AM 39.3794 -80.6450 17° North 458 527 31,000  Level Indianapolis Center
09:56AM 39.5031 -80.5986 16° North 464 534 31,000  Level Indianapolis Center
09:57AM 39.6253 -80.5483 18° North 461 531 31,000  Level Indianapolis Center
09:58AM 39.7467 -80.4944 19° North 462 532 31,000  Level Indianapolis Center
09:59AM 39.8689 -80.4456 17° North 462 532 31,000  Level Indianapolis Center
10:00AM 40.0056 -80.3847 19° North 461 531 31,000  Level Indianapolis Center
10:01AM 40.1369 -80.3292 18° North 461 531 31,000  Level Indianapolis Center
10:02AM 40.2511 -80.2781 19° North 461 531 31,000  Level Indianapolis Center
10:03AM 40.3758 -80.2275 17° North 462 532 31,000  Level Indianapolis Center
10:04AM 40.5314 -80.1628 18° North 473 544 31,000  Level Cleveland Center
10:05AM 40.6592 -80.1450 North 466 536 31,000  Level Cleveland Center
10:07AM 40.7808 -80.0886 19° North 468 539 31,000 -420 Level Cleveland Center
10:08AM 40.9253 -80.0264 18° North 470 541 30,200 -900 Descending Cleveland Center
10:09AM 41.0478 -79.9678 20° North 470 541 29,200 -960 Descending Cleveland Center
10:10AM 41.1775 -79.9058 20° North 473 544 28,300 -960 Descending Cleveland Center
10:11AM 41.2992 -79.8506 19° North 470 541 27,300 -1,020 Descending Cleveland Center
10:12AM 41.4167 -79.7892 21° North 459 528 26,300 -1,020 Descending Cleveland Center
10:13AM 41.5392 -79.7358 18° North 461 531 25,300 -1,020 Descending Cleveland Center
10:14AM 41.6600 -79.6733 21° North 469 540 24,300 -1,020 Descending Cleveland Center
10:15AM 41.7856 -79.6203 17° North 469 540 23,300 -1,680 Descending Cleveland Center
10:16AM 41.9272 -79.5431 22° Northeast 461 531 20,900 -2,040 Descending Cleveland Center
10:17AM 42.0447 -79.4944 17° North 448 516 19,200 -1,620 Descending Cleveland Center
10:18AM 42.1569 -79.4333 22° Northeast 440 506 17,700 -1,500 Descending Cleveland Center
10:19AM 42.2692 -79.3867 17° North 429 494 16,200 -1,440 Descending Cleveland Center
10:20AM 42.3756 -79.3283 22° Northeast 416 479 14,800 -1,440 Descending Cleveland Center
10:21AM 42.4981 -79.2725 19° North 414 476 13,300 -1,380 Descending Cleveland Center
10:22AM 42.5986 -79.2133 23° Northeast 397 457 12,000 -1,320 Descending Cleveland Center
10:23AM 42.6986 -79.1658 19° North 380 437 10,700 -1,200 Descending Cleveland Center
10:24AM 42.7958 -79.1122 22° Northeast 352 405 9,600 -1,260 Descending Cleveland Center
10:25AM 42.8814 -79.0692 20° North 317 365 8,200 -1,800 Descending Cleveland Center
10:26AM 42.9561 -79.0289 22° Northeast 303 349 6,000 -2,280 Descending Cleveland Center
10:27AM 43.0258 -78.9731 30° Northeast 286 329 3,600 -1,680 Descending Cleveland Center
10:28AM 43.0553 -78.8775 67° East 260 299 2,600 -840 Descending Cleveland Center
10:29AM 43.0906 -78.8314 44° Northeast 200 230 1,900 -600 Descending Cleveland Center
10:30AM 43.1108 -78.8731 304° West 141 162 1,400 -420 Descending Cleveland Center
10:31AM 43.1100 -78.9233 269° West 134 154 1,100 -300 Descending Cleveland Center